Wiarton Airport
CYVV : now visible

Airfield :











YOU CAN JOIN US ON...

 
LOGIN :

Register | Disclaimer

   EN    FR    IT 

 









Legend :    VFR   Marginal VFR   IFR   Intensive IFR   Very Intensive IFR
Visi :
Ceiling :
>= 8 km
>= 3000ft
5 to 8 km
1000 to 3000 ft
1500m to 5 km
500 to 1000 ft
800 to 1500m
200 to 500 ft
< 800m
< 200 ft
Symbols :   Thunderstorms  Fog  Heavy snow  Heavy precipitations  Wind > 20 kt







- Airport Elevation : 729 ft
- IATA code : YVV


CYVV - Wiarton

CURRENT METAR :
  • 181900Z 23005KT 15SM FEW025TCU BKN200 OVC250 29/18 A2987 RMK TCU1CI5CC2 TCU TOPS E-S WND ESTD SLP112 DENSITY ALT 2600FT

EXPIRED METARs :
  • 181800Z 23009KT 15SM SCT050 BKN250 29/19 A2989 RMK SC4CI3 WND ESTD SLP122 DENSITY ALT 2500FT
  • 181700Z 23005KT 15SM OVC050 26/20 A2990 RMK SC8 WND ESTD SLP126 DENSITY ALT 2200FT

TAF TAF CYVV
Valid from the 18 at 20:00 until the 18 at 23:00 UTC


181942Z 1820/1823 23008KT P6SM FEW050 BKN240 RMK NXT FCST WILL BE ISSUED AT 191045Z
CZYZ FIR / North America



MET'MAP, your aeronautical weather chart ! - Copyright ORBIFLY December 2007 - Disclaimer

ORBIFLY MET'MAP TEAM :

Programming & Development : Alexandra Zaïnal
Concept & Development : Baudouin d'Aumeries
Co-Development & Prog : Marc-Olivier Méhu
Technical & hardware support : Manuel Goepfert

Contact : metmap@orbifly.com




SOURCES & CREDITS :

   NOAA       Earth
Advisory